Tip Oslo — 9HA3944 — position and weather

sailwx.info

Track history (hours):
 
Tides and Currents Weather Stations Pressure Air Temp Water Temp Dewpoint Dewpoint Depression Visibility Wind Speed Wind Dir Waves Ship Positions

Tip Oslo

Last reported at 2018-May-31 03:01 UTC. Time now 2018-Jun-18 13:41 UTC.
Position N 37°44' W 000°22'.
Warning: this ship's position is 18 days out of date.

Length 120 m; draft 7.1 m.

Type: Cargo ship. MMSI: 256537000.

Date/timePositionNaut miles runAvg speedWind from/ knotsBaromVisibWave heightAir tempDewpointWater temp
2018-May-31 03:01N 37°44' W 000°22'010.9
2018-May-31 03:00N 37°44' W 000°22'611.2
2018-May-31 02:30N 37°39' W 000°26'611.2
2018-May-31 02:00N 37°35' W 000°30'510.5
2018-May-31 01:29N 37°32' W 000°35'612.7
2018-May-31 01:00N 37°32' W 000°43'8 0.4
2018-May-30 05:45N 37°32' W 000°54'412.4
2018-May-30 05:26N 37°32' W 000°49'612.0
2018-May-30 04:58N 37°32' W 000°42'510.8
2018-May-30 04:30N 37°33' W 000°36'612.3
2018-May-30 04:00N 37°38' W 000°31'612.5
2018-May-30 03:30N 37°43' W 000°26'  
2018-May-27 01:37N 37°43' W 000°23'212.5
2018-May-27 01:30N 37°42' W 000°24'812.7
2018-May-27 00:52N 37°35' W 000°29'512.9
2018-May-27 00:30N 37°32' W 000°33'713.4
2018-May-26 23:59N 37°32' W 000°42'237 6.6
2018-May-25 11:50N 35°60' W 005°15'516.3
2018-May-25 11:30N 35°58' W 005°21'  
Track history (hours):
 
Tides and Currents Weather Stations Pressure Air Temp Water Temp Dewpoint Dewpoint Depression Visibility Wind Speed Wind Dir Waves Ship Positions

Tip Oslo

Last reported at 2018-May-31 03:01 UTC. Time now 2018-Jun-18 13:41 UTC.
Position N 37°44' W 000°22'.
Warning: this ship's position is 18 days out of date.

Length 120 m; draft 7.1 m.

Type: Cargo ship. MMSI: 256537000.

Date/timePositionNaut miles runAvg speedWind from/ knotsBaromVisibWave heightAir tempDewpointWater temp
2018-May-31 03:01N 37°44' W 000°22'010.9
2018-May-31 03:00N 37°44' W 000°22'611.2
2018-May-31 02:30N 37°39' W 000°26'611.2
2018-May-31 02:00N 37°35' W 000°30'510.5
2018-May-31 01:29N 37°32' W 000°35'612.7
2018-May-31 01:00N 37°32' W 000°43'8 0.4
2018-May-30 05:45N 37°32' W 000°54'412.4
2018-May-30 05:26N 37°32' W 000°49'612.0
2018-May-30 04:58N 37°32' W 000°42'510.8
2018-May-30 04:30N 37°33' W 000°36'612.3
2018-May-30 04:00N 37°38' W 000°31'612.5
2018-May-30 03:30N 37°43' W 000°26'  
2018-May-27 01:37N 37°43' W 000°23'212.5
2018-May-27 01:30N 37°42' W 000°24'812.7
2018-May-27 00:52N 37°35' W 000°29'512.9
2018-May-27 00:30N 37°32' W 000°33'713.4
2018-May-26 23:59N 37°32' W 000°42'237 6.6
2018-May-25 11:50N 35°60' W 005°15'516.3
2018-May-25 11:30N 35°58' W 005°21'  

Dump ship's entire track history